Historyczne dane pomiarowe

Dodano dane terminowe – wersja testowa.

Dane z okresu 1951-2019

Wersja bazy: 1.34 [2019-03-16, lista zmian], aktualizacja planowana na 2019-04-15

Dane meteo z obszaru Polski uzyskane na podstawie danych udostępnionych przez Instytut Meteorologii i Gospodarki Wodnej – Państwowy Instytut Badawczy.

 

Wybierz Datę:    

       

TemperaturaWilgotnośćWiatrCiśnienieOpadyŚniegCzas trwania zjawisk
 Stacja t tx tn tng RH VA  wxwx mslp ppp RRR   cm mm wxwxwxwxwxwxwx
1991-03-15 7.0 16.3 -1.1 -2.7 76.3- 2.7 2.7---- 1.0------------
1991-03-14 4.7 10.8 -0.9 -1.7 91.5- 5.3 2.0---- 0.0------------
1991-03-13 5.8 13.0 -0.7 -2.0 86.5- 2.7 1.0---- 0.0------------
1991-03-12 5.6 10.3 0.5 -1.4 87.5- 5.3 2.0---- 0.0------------
1991-03-11 4.2 8.5 1.2 -1.8 94.0- 8.0 0.0---- 0.0------------
1991-03-10 3.7 7.4 1.0 0.4 88.8- 4.7 3.7---- 0.0------------
1991-03-09 6.3 12.6 2.5 0.4 79.8- 2.7 7.0---- 0.0------------
1991-03-08 2.9 5.4 0.3 -0.5 81.0- 3.3 5.3---- 0.0------------
1991-03-07 2.7 6.4 -1.1 -2.3 79.0- 0.0 7.0---- 0.0------------
1991-03-06 2.0 4.9 -0.6 -1.9 83.5- 4.3 6.0---- 0.0------------
1991-03-05 3.0 6.4 -0.5 -2.0 87.0- 8.0 1.0---- 0.0------------
1991-03-04 3.5 7.7 0.2 -0.1 86.5- 8.0 0.3---- 0.0------------
1991-03-03 2.0 6.4 -1.7 -2.3 82.8- 2.3 3.3---- 0.0------------
1991-03-02 0.7 4.6 -2.5 -2.8 80.5- 0.0 5.7---- 0.0------------
1991-03-01 -0.1 2.7 -1.9 -7.1 88.3- 8.0 4.7---- 0.0------------
1991-02-28 0.5 1.0 -1.0 -1.2 84.0- 8.0 3.0---- 0.0------------
1991-02-27 -0.2 2.0 -1.4 -3.0 77.5- 8.0 7.0---- 0.2------------
1991-02-26 2.8 6.6 1.5 1.1 80.3- 8.0 4.0---- 0.0------------
1991-02-25 4.3 10.4 -1.7 -3.9 84.0- 5.3 0.0---- 0.0-- 3---------
1991-02-24 2.2 5.2 0.4 -1.2 88.3- 6.3 1.7---- 0.0-- 5---------
1991-02-23 2.3 5.9 -1.2 -1.2 78.0- 5.0 2.0---- 0.0-- 10---------
1991-02-22 -2.3 1.0-10.7-10.7 83.0- 7.0 0.0---- 0.0-- 10---------
1991-02-21 -1.3 3.1-10.7-11.9 77.5- 3.7 1.3---- 0.0-- 15---------
1991-02-20 -0.8 1.0 -6.9-11.7 84.3- 8.0 2.7---- 0.0-- 20---------
1991-02-19 -6.8 0.5-18.8-20.7 81.5- 8.0 1.7---- 0.0-- 20---------
1991-02-18 -4.5 1.2 -9.4-11.3 74.8- 1.3 7.0---- 0.0-- 25---------
1991-02-17 -4.9 -3.0-10.4-15.1 82.8- 7.3 7.3---- 0.8-- 25---------
1991-02-16-10.4 -7.0-18.2-20.5 79.3- 8.0 7.0---- 0.0-- 30---------
1991-02-15 -7.6 -6.2-11.9-12.3 72.5- 3.7 6.0---- 0.0-- 30---------
1991-02-14 -5.6 -3.0 -7.0 -8.5 75.8- 7.0 10.0---- 0.0-- 30---------
1991-02-13 -4.1 -2.9 -5.9 -6.2 87.5- 8.0 8.7---- 15.5-- 20---------
1991-02-12 -3.4 -0.9 -9.0 -9.0 85.0- 8.0 1.7---- 4.3-- 17---------
1991-02-11 0.4 3.0 -1.5 -3.3 92.3- 8.0 2.7---- 2.5-- 15---------
1991-02-10 0.5 1.8 -2.2 -3.0 92.0- 8.0 0.0---- 0.0-- 15---------
1991-02-09 0.1 0.8 -5.1 -5.1 89.8- 8.0 0.0---- 0.0-- 15---------
1991-02-08 -4.4 -3.2 -6.7 -8.0 83.3- 8.0 11.0---- 4.2-- 10---------
1991-02-07 -7.1 -5.3-13.2-14.1 76.3- 7.7 10.3---- 0.0-- 10---------
1991-02-06 -9.8 -6.2-17.5-17.5 84.5- 8.0 10.7---- 3.6-- 7---------
1991-02-05-15.6-10.7-21.1-22.3 84.3- 8.0 8.0---- 0.8-- 6---------
1991-02-04 -9.8 -7.2-13.4-15.4 83.5- 8.0 4.0---- 0.5-- 6---------
1991-02-03-12.5-10.4-16.5-17.3 80.5- 8.0 4.3---- 0.0-- 6---------
1991-02-02-14.1-10.5-21.2-23.0 76.3- 0.0 1.0---- 1.5-- 5---------
1991-02-01-13.4-11.0-21.1-23.3 76.0- 8.0 2.7---- 0.0-- 5---------
1991-01-31-15.3-11.0-18.6-20.9 75.0- 0.0 2.3---- 0.0-- 5---------
1991-01-30 -6.3 -2.2-11.6-12.1 74.0- 2.0 5.7---- 1.8-- 3---------
1991-01-29 -0.9 0.1 -2.7 -3.0 89.5- 8.0 6.3---- 0.8-- 2---------
1991-01-28 0.5 2.2 -1.0 -2.5 91.5- 8.0 7.0---- 3.5------------
1991-01-27 2.6 3.2 1.2 0.1 87.5- 8.0 2.3---- 0.0------------
1991-01-26 1.3 2.4 0.1 -0.5 90.8- 8.0 2.7---- 0.0------------
1991-01-25 -0.1 2.0 -1.8 -3.4 88.0- 8.0 4.3---- 0.0------------
1991-01-24 0.8 2.0 -0.8 -1.3 91.3- 8.0 4.0---- 1.3------------
1991-01-23 0.6 2.0 -1.5 -5.7 85.8- 8.0 2.3---- 0.0------------
1991-01-22 -3.8 -0.5 -8.4-11.7 94.3- 8.0 3.7---- 0.0-- 1---------
1991-01-21 -5.3 -2.2 -9.4-13.4 89.3- 8.0 1.7---- 0.0-- 1---------
1991-01-20 -6.9 -4.0 -8.4-10.9 91.5- 8.0 1.0---- 0.0-- 1---------
1991-01-19 -5.1 -4.2 -8.4-10.2 91.8- 8.0 1.7---- 0.0-- 2---------
1991-01-18 -6.9 -2.2-11.7-14.9 88.8- 8.0 1.0---- 0.0-- 2---------
1991-01-17 -8.5 -6.4-11.9-13.8 93.5- 8.0 1.0---- 0.0-- 2---------
1991-01-16 -4.7 -1.0 -7.4 -7.4 80.5- 1.0 2.3---- 0.0-- 4---------
1991-01-15 -5.3 -2.5 -9.4-11.3 94.5- 6.3 0.0---- 2.2------------
506.1 ms

 

Źródłem pochodzenia danych jest Instytut Meteorologii i Gospodarki Wodnej – Państwowy Instytut Badawczy. Dane Instytutu Meteorologii i Gospodarki Wodnej – Państwowego Instytutu Badawczego zostały przetworzone.

Dane źródłowe można odnaleźć na stronie https://dane.imgw.pl